Patricios, Argentina
Current Conditions -  °F | °C
As of 7:00 PM on Wednesday 22 Oct 2014 (Local Time) from SAEZ Reporting Station
Clear Clear  
Wind Chill: 29°   Ceiling: Unl
Heat Index: 29°   Visibility: 6mi
Dew Point: 13°   Wind: 6mph
Humidity: 37%   Direction: 330°NNW
Pressure: 29.97"   Gusts: NA
Location:  35.45°S, 60.71°W
Report Text: SAEZ 222200Z 33005KT CAVOK 29/13 Q1015
Loading
Personal Weather Stations






























Interactive Weather Map
Tropical Storm Tracking
New forecast layout! Learn more

10-Day Weather Forecast

Advertisements
Track Severe Weather on mobile